createdAt,value
2022-09-22T00:06:33.226Z,0.88
2022-09-22T00:09:58.309Z,1.23
2022-09-22T00:13:22.251Z,1.13
2022-09-22T00:16:50.220Z,0.80
2022-09-22T00:20:14.298Z,0.98
2022-09-22T00:23:42.288Z,1.00
2022-09-22T00:27:07.250Z,0.68
2022-09-22T00:30:32.307Z,0.80
2022-09-22T00:33:56.231Z,0.60
2022-09-22T00:37:20.344Z,0.80
2022-09-22T00:40:45.331Z,0.82
2022-09-22T00:44:42.260Z,0.80
2022-09-22T00:48:06.279Z,0.80
2022-09-22T00:51:31.306Z,0.70
2022-09-22T00:54:55.280Z,0.70
2022-09-22T00:58:16.901Z,0.80
2022-09-22T01:01:36.379Z,0.77
2022-09-22T01:05:00.239Z,0.70
2022-09-22T01:08:25.329Z,0.73
2022-09-22T01:11:49.323Z,0.60
2022-09-22T01:15:58.333Z,0.70
2022-09-22T01:19:31.316Z,0.60
2022-09-22T01:23:43.294Z,0.75
2022-09-22T01:27:16.337Z,0.43
2022-09-22T01:30:46.346Z,0.60
2022-09-22T01:34:42.335Z,0.50
2022-09-22T01:38:12.252Z,0.68
2022-09-22T01:42:08.355Z,0.60
2022-09-22T01:45:37.305Z,0.70
2022-09-22T01:49:04.353Z,0.70
2022-09-22T01:52:32.381Z,0.70
2022-09-22T01:55:59.342Z,0.70
2022-09-22T01:59:18.904Z,0.60
2022-09-22T02:02:45.519Z,0.70
2022-09-22T02:06:14.321Z,0.60
2022-09-22T02:09:40.347Z,0.70
2022-09-22T02:13:04.323Z,0.80
2022-09-22T02:16:34.421Z,1.00
2022-09-22T02:19:58.425Z,0.70
2022-09-22T02:23:22.433Z,0.70
2022-09-22T02:26:49.322Z,0.90
2022-09-22T02:30:24.346Z,0.73
2022-09-22T02:33:57.333Z,0.70
2022-09-22T02:37:45.336Z,0.75
2022-09-22T02:41:40.421Z,0.80
2022-09-22T02:45:25.390Z,0.80
2022-09-22T02:48:56.433Z,0.90
2022-09-22T02:52:26.434Z,0.80
2022-09-22T02:55:50.328Z,0.90
2022-09-22T02:59:14.422Z,1.00
2022-09-22T03:02:32.005Z,1.00
2022-09-22T03:05:49.409Z,0.90
2022-09-22T03:09:13.334Z,0.80
2022-09-22T03:12:37.385Z,0.88
2022-09-22T03:16:01.406Z,0.60
2022-09-22T03:19:25.405Z,0.80
2022-09-22T03:22:50.334Z,1.10
2022-09-22T03:26:13.386Z,1.20
2022-09-22T03:29:37.320Z,1.02
2022-09-22T03:33:01.334Z,1.00
2022-09-22T03:36:26.348Z,0.85
2022-09-22T03:39:50.394Z,0.77
2022-09-22T03:43:16.712Z,1.30
2022-09-22T03:46:42.341Z,1.20
2022-09-22T03:50:07.318Z,0.90
2022-09-22T03:53:33.492Z,1.00
2022-09-22T03:56:58.373Z,1.13
2022-09-22T04:00:22.395Z,1.05
2022-09-22T04:03:40.966Z,1.10
2022-09-22T04:06:59.133Z,1.20
2022-09-22T04:10:25.375Z,0.85
2022-09-22T04:13:49.347Z,0.90
2022-09-22T04:17:13.368Z,1.20
2022-09-22T04:20:38.352Z,1.63
2022-09-22T04:24:01.333Z,1.50
2022-09-22T04:27:25.438Z,1.50
2022-09-22T04:30:51.437Z,1.45
2022-09-22T04:34:15.430Z,2.55
2022-09-22T04:37:39.348Z,2.30
2022-09-22T04:41:05.414Z,3.10
2022-09-22T04:44:32.127Z,1.83
2022-09-22T04:48:03.408Z,1.60
2022-09-22T04:51:27.387Z,1.40
2022-09-22T04:54:52.438Z,2.72
2022-09-22T04:58:15.365Z,2.30
2022-09-22T05:01:38.450Z,1.20
2022-09-22T05:04:55.965Z,1.30
2022-09-22T05:08:13.393Z,1.20
2022-09-22T05:11:38.385Z,1.20
2022-09-22T05:15:02.379Z,1.17
2022-09-22T05:18:27.418Z,1.20
2022-09-22T05:21:52.401Z,2.20
2022-09-22T05:25:19.397Z,1.40
2022-09-22T05:28:43.366Z,2.65
2022-09-22T05:32:07.428Z,1.08
2022-09-22T05:35:36.879Z,1.20
2022-09-22T05:39:01.347Z,1.73
2022-09-22T05:42:26.444Z,1.65
2022-09-22T05:45:50.436Z,1.60
2022-09-22T05:49:14.397Z,1.65
2022-09-22T05:52:38.349Z,1.50
2022-09-22T05:56:05.442Z,1.88
2022-09-22T05:59:29.358Z,1.27
2022-09-22T06:02:53.476Z,3.28
2022-09-22T06:06:10.960Z,1.70
2022-09-22T06:09:29.400Z,1.98
2022-09-22T06:12:53.419Z,1.83
2022-09-22T06:16:18.453Z,2.20
2022-09-22T06:19:42.388Z,1.95
2022-09-22T06:23:08.413Z,2.20
2022-09-22T06:26:32.392Z,1.30
2022-09-22T06:29:57.411Z,1.55
2022-09-22T06:33:22.429Z,1.80
2022-09-22T06:36:46.412Z,1.80
2022-09-22T06:40:11.884Z,2.60
2022-09-22T06:43:45.421Z,2.90
2022-09-22T06:47:13.374Z,3.60
2022-09-22T06:50:40.416Z,2.50
2022-09-22T06:54:04.428Z,3.35
2022-09-22T06:57:29.456Z,3.47
2022-09-22T07:00:53.458Z,4.10
2022-09-22T07:04:17.475Z,3.17
2022-09-22T07:07:47.722Z,4.10
2022-09-22T07:11:07.458Z,2.40
2022-09-22T07:14:33.469Z,4.07
2022-09-22T07:17:58.391Z,3.08
2022-09-22T07:21:35.472Z,2.53
2022-09-22T07:25:01.463Z,4.80
2022-09-22T07:28:25.482Z,2.80
2022-09-22T07:31:49.475Z,1.80
2022-09-22T07:35:14.571Z,1.75
2022-09-22T07:38:41.458Z,1.60
2022-09-22T07:42:05.472Z,1.20
2022-09-22T07:45:31.457Z,3.08
2022-09-22T07:48:55.437Z,3.28
2022-09-22T07:52:19.579Z,2.70
2022-09-22T07:55:46.397Z,2.55
2022-09-22T07:59:13.489Z,1.50
2022-09-22T08:02:44.454Z,1.60
2022-09-22T08:06:23.892Z,1.55
2022-09-22T08:09:43.034Z,1.33
2022-09-22T08:13:06.455Z,3.30
2022-09-22T08:16:36.517Z,2.08
2022-09-22T08:20:00.502Z,2.55
2022-09-22T08:23:24.469Z,1.35
2022-09-22T08:26:48.515Z,2.28
2022-09-22T08:30:13.479Z,1.50
2022-09-22T08:33:37.470Z,2.30
2022-09-22T08:37:01.528Z,1.20
2022-09-22T08:40:32.516Z,1.30
2022-09-22T08:44:05.516Z,1.40
2022-09-22T08:47:55.457Z,1.48
2022-09-22T08:51:58.441Z,2.10
2022-09-22T08:55:38.487Z,2.08
2022-09-22T08:59:15.445Z,1.38
2022-09-22T09:03:07.600Z,1.55
2022-09-22T09:07:03.469Z,1.60
2022-09-22T09:10:43.460Z,1.13
2022-09-22T09:14:20.503Z,1.00
2022-09-22T09:17:47.450Z,0.80
2022-09-22T09:21:12.533Z,0.82
2022-09-22T09:28:51.485Z,1.20
2022-09-22T09:32:18.496Z,0.70
2022-09-22T09:36:03.563Z,0.90
2022-09-22T09:39:46.442Z,0.60
2022-09-22T09:43:16.484Z,0.57
2022-09-22T09:46:53.443Z,0.68
2022-09-22T09:50:19.491Z,0.65
2022-09-22T09:53:55.455Z,1.30
2022-09-22T09:57:27.870Z,0.88
2022-09-22T10:01:13.507Z,0.90
2022-09-22T10:04:52.479Z,0.90
2022-09-22T10:08:36.486Z,0.75
2022-09-22T10:12:16.535Z,1.00
2022-09-22T10:15:41.553Z,0.80
2022-09-22T10:19:21.449Z,0.88
2022-09-22T10:22:45.504Z,0.60
2022-09-22T10:26:36.497Z,0.60
2022-09-22T10:30:04.498Z,0.60
2022-09-22T10:33:41.709Z,0.70
2022-09-22T10:37:07.549Z,0.70
2022-09-22T10:40:33.603Z,0.60
2022-09-22T10:44:27.363Z,0.63
2022-09-22T10:48:33.493Z,0.70
2022-09-22T10:52:09.549Z,0.80
2022-09-22T10:55:44.549Z,0.70
2022-09-22T10:59:17.507Z,0.70
2022-09-22T11:02:54.515Z,0.63
2022-09-22T11:06:42.517Z,0.75
2022-09-22T11:10:45.511Z,0.68
2022-09-22T11:14:23.860Z,0.90
2022-09-22T11:18:08.508Z,0.70
2022-09-22T11:21:54.476Z,0.80
2022-09-22T11:25:50.579Z,0.80
2022-09-22T11:29:28.483Z,0.70
2022-09-22T11:33:02.573Z,0.70
2022-09-22T11:37:01.535Z,0.70
2022-09-22T11:40:37.812Z,0.80
2022-09-22T11:44:28.530Z,0.70
2022-09-22T11:48:04.525Z,0.80
2022-09-22T11:51:44.505Z,0.82
2022-09-22T11:55:31.568Z,0.60
2022-09-22T11:58:55.503Z,0.70
2022-09-22T12:02:44.598Z,0.70
2022-09-22T12:06:18.530Z,0.90
2022-09-22T12:09:48.525Z,0.77
2022-09-22T12:13:07.073Z,0.75
2022-09-22T12:16:27.519Z,0.60
2022-09-22T12:20:20.659Z,0.90
2022-09-22T12:23:52.525Z,0.80
2022-09-22T12:27:25.552Z,0.60
2022-09-22T12:30:49.688Z,0.63
2022-09-22T12:34:13.556Z,0.65
2022-09-22T12:37:43.568Z,0.70
2022-09-22T12:41:11.518Z,0.70
2022-09-22T12:44:37.549Z,0.63
2022-09-22T12:48:09.781Z,0.68
2022-09-22T12:51:41.556Z,0.80
2022-09-22T12:55:05.554Z,0.70
2022-09-22T12:58:38.717Z,0.70
2022-09-22T13:02:27.553Z,0.70
2022-09-22T13:05:52.594Z,1.05
2022-09-22T13:09:19.549Z,1.10
2022-09-22T13:12:43.566Z,0.90
2022-09-22T13:16:11.640Z,0.80
2022-09-22T13:19:35.553Z,0.88
2022-09-22T13:22:59.628Z,0.73
2022-09-22T13:26:28.604Z,0.75
2022-09-22T13:29:52.593Z,0.88
2022-09-22T13:33:17.562Z,1.10
2022-09-22T13:36:42.567Z,0.80
2022-09-22T13:40:09.589Z,0.90
2022-09-22T13:43:45.613Z,1.05
2022-09-22T13:47:12.560Z,1.08
2022-09-22T13:50:37.612Z,1.10
2022-09-22T13:54:05.566Z,0.80
2022-09-22T13:57:39.588Z,1.20
2022-09-22T14:01:13.414Z,1.00
2022-09-22T14:04:42.580Z,1.08
2022-09-22T14:08:12.009Z,1.00
2022-09-22T14:11:43.601Z,0.93
2022-09-22T14:15:07.591Z,1.05
2022-09-22T14:18:36.592Z,1.25
2022-09-22T14:22:10.629Z,1.05
2022-09-22T14:25:35.550Z,1.00
2022-09-22T14:28:59.591Z,0.90
2022-09-22T14:32:35.595Z,1.10
2022-09-22T14:36:00.593Z,0.93
2022-09-22T14:39:32.536Z,1.05
2022-09-22T14:42:57.636Z,1.00
2022-09-22T14:46:44.595Z,1.17
2022-09-22T14:50:28.583Z,0.80
2022-09-22T14:54:03.570Z,0.90
2022-09-22T14:57:30.583Z,0.80
2022-09-22T15:01:23.609Z,0.90
2022-09-22T15:04:47.632Z,0.80
2022-09-22T15:08:13.371Z,0.80
2022-09-22T15:12:04.396Z,0.75
2022-09-22T15:15:32.074Z,0.70
2022-09-22T15:18:49.404Z,0.95
2022-09-22T15:22:15.381Z,0.80
2022-09-22T15:25:39.443Z,0.70
2022-09-22T15:29:06.429Z,0.93
2022-09-22T15:32:31.409Z,0.90
2022-09-22T15:35:55.439Z,0.73
2022-09-22T15:39:35.430Z,0.68
2022-09-22T15:43:12.720Z,0.73
2022-09-22T15:46:51.675Z,0.70
2022-09-22T15:50:15.592Z,0.80
2022-09-22T15:53:39.746Z,0.90
2022-09-22T15:57:07.626Z,0.70
2022-09-22T16:00:36.724Z,0.70
2022-09-22T16:04:00.670Z,0.70
2022-09-22T16:07:26.760Z,0.70
2022-09-22T16:10:52.638Z,0.70
2022-09-22T16:14:19.678Z,0.60
2022-09-22T16:17:39.649Z,0.70
2022-09-22T16:20:59.690Z,0.70
2022-09-22T16:24:26.611Z,0.80
2022-09-22T16:27:49.651Z,0.68
2022-09-22T16:31:17.682Z,0.70
2022-09-22T16:34:42.685Z,0.55
2022-09-22T16:38:07.637Z,0.52
2022-09-22T16:41:39.698Z,0.50
2022-09-22T16:45:03.627Z,0.60
2022-09-22T16:48:27.689Z,0.50
2022-09-22T16:51:56.702Z,0.55
2022-09-22T16:55:21.668Z,0.50
2022-09-22T16:58:44.660Z,0.60
2022-09-22T17:02:08.687Z,0.60
2022-09-22T17:05:31.662Z,0.60
2022-09-22T17:08:56.661Z,0.60
2022-09-22T17:12:19.709Z,0.65
2022-09-22T17:15:44.718Z,0.55
2022-09-22T17:19:06.245Z,0.70
2022-09-22T17:22:24.708Z,0.68
2022-09-22T17:25:48.687Z,0.70
2022-09-22T17:29:12.709Z,0.60
2022-09-22T17:32:37.675Z,0.60
2022-09-22T17:36:01.671Z,0.60
2022-09-22T17:39:24.661Z,0.57
2022-09-22T17:42:48.634Z,0.70
2022-09-22T17:46:12.741Z,0.60
2022-09-22T17:49:55.652Z,0.65
2022-09-22T17:53:30.667Z,0.60
2022-09-22T17:56:53.652Z,0.80
2022-09-22T18:00:21.758Z,0.70
2022-09-22T18:03:45.640Z,0.70
2022-09-22T18:07:13.707Z,0.60
2022-09-22T18:10:41.650Z,0.70
2022-09-22T18:14:05.780Z,0.80
2022-09-22T18:17:32.686Z,1.20
2022-09-22T18:20:57.668Z,1.25
2022-09-22T18:24:27.686Z,0.90
2022-09-22T18:27:51.649Z,1.10
2022-09-22T18:31:15.734Z,1.00
2022-09-22T18:34:39.708Z,0.90
2022-09-22T18:38:02.660Z,1.00
2022-09-22T18:41:26.711Z,0.85
2022-09-22T18:44:50.689Z,0.90
2022-09-22T18:48:14.707Z,1.10
2022-09-22T18:51:38.657Z,0.90
2022-09-22T18:55:04.739Z,0.93
2022-09-22T18:58:28.697Z,1.02
2022-09-22T19:01:52.751Z,0.80
2022-09-22T19:05:16.689Z,0.80
2022-09-22T19:08:41.700Z,0.70
2022-09-22T19:12:06.678Z,1.40
2022-09-22T19:15:33.762Z,1.25
2022-09-22T19:18:57.721Z,1.20
2022-09-22T19:22:17.317Z,0.93
2022-09-22T19:25:35.693Z,0.80
2022-09-22T19:29:00.745Z,0.82
2022-09-22T19:32:24.668Z,0.80
2022-09-22T19:35:47.706Z,0.90
2022-09-22T19:39:12.714Z,0.80
2022-09-22T19:42:40.054Z,0.80
2022-09-22T19:46:04.710Z,0.80
2022-09-22T19:49:29.704Z,0.70
2022-09-22T19:52:53.739Z,1.00
2022-09-22T19:56:17.718Z,0.90
2022-09-22T19:59:41.765Z,1.20
2022-09-22T20:03:08.739Z,1.10
2022-09-22T20:06:33.772Z,1.20
2022-09-22T20:09:57.677Z,1.38
2022-09-22T20:13:39.767Z,1.40
2022-09-22T20:17:12.727Z,1.88
2022-09-22T20:20:41.763Z,1.70
2022-09-22T20:24:05.679Z,1.65
2022-09-22T20:27:29.894Z,1.55
2022-09-22T20:30:53.746Z,1.10
2022-09-22T20:34:18.741Z,1.42
2022-09-22T20:37:43.733Z,1.23
2022-09-22T20:41:06.861Z,1.30
2022-09-22T20:44:30.734Z,1.50
2022-09-22T20:47:54.728Z,2.17
2022-09-22T20:51:11.705Z,2.13
2022-09-22T20:54:34.773Z,2.45
2022-09-22T20:57:51.770Z,2.10
2022-09-22T21:01:16.797Z,2.42
2022-09-22T21:04:40.681Z,2.03
2022-09-22T21:08:24.778Z,2.67
2022-09-22T21:11:48.760Z,2.28
2022-09-22T21:15:12.771Z,1.90
2022-09-22T21:18:35.786Z,2.10
2022-09-22T21:21:53.343Z,1.30
2022-09-22T21:25:10.821Z,1.58
2022-09-22T21:28:34.761Z,1.60
2022-09-22T21:31:58.758Z,1.27
2022-09-22T21:35:24.754Z,1.27
2022-09-22T21:38:48.752Z,0.80
2022-09-22T21:42:13.784Z,0.80
2022-09-22T21:45:37.717Z,1.00
2022-09-22T21:49:02.806Z,1.30
2022-09-22T21:52:27.715Z,1.10
2022-09-22T21:55:51.802Z,1.20
2022-09-22T21:59:17.779Z,1.40
2022-09-22T22:03:01.749Z,1.10
2022-09-22T22:06:26.803Z,1.10
2022-09-22T22:09:50.767Z,1.08
2022-09-22T22:13:14.765Z,4.00
2022-09-22T22:16:40.771Z,0.90
2022-09-22T22:20:05.774Z,1.10
2022-09-22T22:23:29.806Z,1.10
2022-09-22T22:26:47.766Z,0.80
2022-09-22T22:30:11.760Z,0.93
2022-09-22T22:33:36.759Z,1.60
2022-09-22T22:37:00.794Z,2.00
2022-09-22T22:40:25.860Z,2.30
2022-09-22T22:43:49.741Z,1.95
2022-09-22T22:47:13.807Z,2.08
2022-09-22T22:50:36.795Z,2.35
2022-09-22T22:54:03.759Z,1.90
2022-09-22T22:57:27.781Z,1.80
2022-09-22T23:00:51.737Z,2.63
2022-09-22T23:04:17.808Z,2.65
2022-09-22T23:07:41.792Z,2.97
2022-09-22T23:11:04.792Z,4.53
2022-09-22T23:14:28.799Z,5.03
2022-09-22T23:17:52.788Z,4.75
2022-09-22T23:21:17.822Z,4.68
2022-09-22T23:24:41.794Z,4.75
2022-09-22T23:28:09.796Z,4.15
2022-09-22T23:31:34.811Z,4.38
2022-09-22T23:34:58.817Z,4.22
2022-09-22T23:38:22.792Z,4.30
2022-09-22T23:41:50.781Z,4.03
2022-09-22T23:45:15.799Z,3.90
2022-09-22T23:48:39.770Z,3.15
2022-09-22T23:52:03.844Z,3.38
2022-09-22T23:55:26.828Z,2.70
2022-09-22T23:58:53.814Z,2.88
